Northway Information

FAA: ORT - ICAO: PAOR

Northway (Airport) Location

State Alaska
County Southeast Fairbanks
City Northway
Northway (Airport) is 0 miles south of Northway, AK.
Latitude 62-57-40.2000N
Longitude 141-55-41.1000W
Elevation 1,720ft

Northway METARs

METAR PAOR 190153Z 00000KT 10SM SCT090 BKN140 OVC200 M22/M26 A2993 RMK AO2 SLP212 T12221256
Altimeter 29.93"
Temperature -22.2°C (-8.0°F)
Wind 0° at 0KT
Clouds scattered at 9,000ft broken at 14,000ft overcast at 20,000ft
Visibility 10.0mi
Time observed: 2022-01-19T01:53:00Z

Northway (Airport) Details

Status Operational
Activation July 1947
Ownership Public
Usage Public
Chart ANCHORAGE
ATC on-site No
Beacon schedule sunset-sunrise
Beacon color clear green

Northway (Airport) Contacts

Owner ALASKA DOT&PF NORTHERN REGION
Owner address 2301 PEGER RD., FAIRBANKS, AK 99709
Owner phone 907-451-2200
Manager MAT-SU AREA OFFICE, AK STATE PARKS
Manager address 7278 EAST BOGARD RD, WASILLA, AK 99654
Manager phone 907-745-3975

Northway Radio Frequencies

Northway (Airport) Radio Frequencies

UNICOM N/A
Common traffic advisory frequency (CTAF) 123.6